sensor_id;sensor_type;location;lat;lon;timestamp;pressure;altitude;pressure_sealevel;temperature;humidity
77159;BME280;66129;45.890;13.714;2023-07-13T00:00:11;100704.22;;;23.55;79.04
77159;BME280;66129;45.890;13.714;2023-07-13T00:02:37;100694.53;;;23.57;79.32
77159;BME280;66129;45.890;13.714;2023-07-13T00:05:02;100652.09;;;23.49;79.53
77159;BME280;66129;45.890;13.714;2023-07-13T00:07:28;100662.03;;;23.64;79.42
77159;BME280;66129;45.890;13.714;2023-07-13T00:09:53;100645.78;;;23.55;79.61
77159;BME280;66129;45.890;13.714;2023-07-13T00:12:28;100662.41;;;23.54;80.43
77159;BME280;66129;45.890;13.714;2023-07-13T00:14:59;100677.31;;;23.52;79.78
77159;BME280;66129;45.890;13.714;2023-07-13T00:17:25;100704.34;;;23.52;80.54
77159;BME280;66129;45.890;13.714;2023-07-13T00:19:51;100697.41;;;23.51;82.14
77159;BME280;66129;45.890;13.714;2023-07-13T00:22:17;100707.09;;;23.48;82.93
77159;BME280;66129;45.890;13.714;2023-07-13T00:24:44;100736.22;;;23.39;83.71
77159;BME280;66129;45.890;13.714;2023-07-13T00:27:09;100753.03;;;23.30;84.20
77159;BME280;66129;45.890;13.714;2023-07-13T00:29:36;100759.84;;;23.36;84.31
77159;BME280;66129;45.890;13.714;2023-07-13T00:32:03;100762.69;;;23.28;84.63
77159;BME280;66129;45.890;13.714;2023-07-13T00:34:29;100772.31;;;23.28;84.95
77159;BME280;66129;45.890;13.714;2023-07-13T00:36:54;100803.81;;;23.25;85.07
77159;BME280;66129;45.890;13.714;2023-07-13T00:39:20;100800.66;;;23.41;79.07
77159;BME280;66129;45.890;13.714;2023-07-13T00:41:46;100773.75;;;23.63;75.61
77159;BME280;66129;45.890;13.714;2023-07-13T00:44:16;100767.91;;;23.81;73.13
77159;BME280;66129;45.890;13.714;2023-07-13T00:46:42;100752.69;;;23.92;72.30
77159;BME280;66129;45.890;13.714;2023-07-13T00:49:10;100706.19;;;23.99;72.54
77159;BME280;66129;45.890;13.714;2023-07-13T00:51:40;100729.94;;;23.94;75.85
77159;BME280;66129;45.890;13.714;2023-07-13T00:54:09;100850.00;;;23.80;76.91
77159;BME280;66129;45.890;13.714;2023-07-13T00:56:37;101078.16;;;23.68;75.17
77159;BME280;66129;45.890;13.714;2023-07-13T00:59:06;101182.31;;;23.56;77.96
77159;BME280;66129;45.890;13.714;2023-07-13T01:01:32;101058.91;;;21.60;91.79
77159;BME280;66129;45.890;13.714;2023-07-13T01:03:57;101045.53;;;20.88;97.62
77159;BME280;66129;45.890;13.714;2023-07-13T01:06:23;101062.22;;;20.23;100.00
77159;BME280;66129;45.890;13.714;2023-07-13T01:08:48;101053.84;;;19.98;100.00
77159;BME280;66129;45.890;13.714;2023-07-13T01:11:18;101070.53;;;19.83;100.00
77159;BME280;66129;45.890;13.714;2023-07-13T01:13:45;101063.78;;;19.69;100.00
77159;BME280;66129;45.890;13.714;2023-07-13T01:16:21;101021.47;;;19.58;100.00
77159;BME280;66129;45.890;13.714;2023-07-13T01:18:49;100963.44;;;19.53;100.00
77159;BME280;66129;45.890;13.714;2023-07-13T01:21:14;100929.88;;;19.35;100.00
77159;BME280;66129;45.890;13.714;2023-07-13T01:23:40;100928.06;;;19.41;100.00
77159;BME280;66129;45.890;13.714;2023-07-13T01:26:05;100915.78;;;19.51;100.00
77159;BME280;66129;45.890;13.714;2023-07-13T01:28:31;100901.69;;;19.65;100.00
77159;BME280;66129;45.890;13.714;2023-07-13T01:30:58;100879.75;;;19.81;100.00
77159;BME280;66129;45.890;13.714;2023-07-13T01:33:24;100867.50;;;19.89;100.00
77159;BME280;66129;45.890;13.714;2023-07-13T01:35:50;100864.75;;;20.00;100.00
77159;BME280;66129;45.890;13.714;2023-07-13T01:38:18;100857.56;;;20.14;100.00
77159;BME280;66129;45.890;13.714;2023-07-13T01:40:44;100849.75;;;20.12;100.00
77159;BME280;66129;45.890;13.714;2023-07-13T01:43:09;100856.63;;;20.16;100.00
77159;BME280;66129;45.890;13.714;2023-07-13T01:45:35;100863.66;;;20.11;100.00
77159;BME280;66129;45.890;13.714;2023-07-13T01:48:00;100899.25;;;20.11;100.00
77159;BME280;66129;45.890;13.714;2023-07-13T01:50:26;100916.66;;;20.09;100.00
77159;BME280;66129;45.890;13.714;2023-07-13T01:52:52;100947.78;;;20.13;100.00
77159;BME280;66129;45.890;13.714;2023-07-13T01:55:18;100978.41;;;19.99;100.00
77159;BME280;66129;45.890;13.714;2023-07-13T01:57:43;101002.81;;;19.89;100.00
77159;BME280;66129;45.890;13.714;2023-07-13T02:00:10;101100.72;;;19.95;100.00
77159;BME280;66129;45.890;13.714;2023-07-13T02:02:35;101094.78;;;19.85;100.00
77159;BME280;66129;45.890;13.714;2023-07-13T02:05:01;101005.38;;;19.92;100.00
77159;BME280;66129;45.890;13.714;2023-07-13T02:07:26;101002.72;;;19.95;100.00
77159;BME280;66129;45.890;13.714;2023-07-13T02:09:52;100966.31;;;19.94;100.00
77159;BME280;66129;45.890;13.714;2023-07-13T02:12:17;100945.47;;;19.98;100.00
77159;BME280;66129;45.890;13.714;2023-07-13T02:14:43;100936.63;;;20.07;100.00
77159;BME280;66129;45.890;13.714;2023-07-13T02:17:09;100910.66;;;20.05;100.00
77159;BME280;66129;45.890;13.714;2023-07-13T02:19:34;100881.78;;;20.18;100.00
77159;BME280;66129;45.890;13.714;2023-07-13T02:22:00;100864.97;;;20.36;100.00
77159;BME280;66129;45.890;13.714;2023-07-13T02:24:25;100847.53;;;20.39;100.00
77159;BME280;66129;45.890;13.714;2023-07-13T02:26:52;100857.78;;;20.47;100.00
77159;BME280;66129;45.890;13.714;2023-07-13T02:29:17;100842.16;;;20.48;100.00
77159;BME280;66129;45.890;13.714;2023-07-13T02:31:43;100827.22;;;20.56;100.00
77159;BME280;66129;45.890;13.714;2023-07-13T02:34:08;100816.84;;;20.55;100.00
77159;BME280;66129;45.890;13.714;2023-07-13T02:36:34;100815.72;;;20.66;100.00
77159;BME280;66129;45.890;13.714;2023-07-13T02:39:02;100787.91;;;20.68;100.00
77159;BME280;66129;45.890;13.714;2023-07-13T02:41:28;100787.97;;;20.65;100.00
77159;BME280;66129;45.890;13.714;2023-07-13T02:43:53;100785.41;;;20.62;100.00
77159;BME280;66129;45.890;13.714;2023-07-13T02:46:19;100770.78;;;20.57;100.00
77159;BME280;66129;45.890;13.714;2023-07-13T02:48:45;100767.47;;;20.49;100.00
77159;BME280;66129;45.890;13.714;2023-07-13T02:51:10;100774.56;;;20.41;100.00
77159;BME280;66129;45.890;13.714;2023-07-13T02:53:36;100778.09;;;20.38;100.00
77159;BME280;66129;45.890;13.714;2023-07-13T02:56:03;100775.44;;;20.40;100.00
77159;BME280;66129;45.890;13.714;2023-07-13T02:58:29;100759.91;;;20.37;100.00
77159;BME280;66129;45.890;13.714;2023-07-13T03:00:55;100772.78;;;20.43;100.00
77159;BME280;66129;45.890;13.714;2023-07-13T03:03:21;100750.34;;;20.39;100.00
77159;BME280;66129;45.890;13.714;2023-07-13T03:05:46;100754.59;;;20.41;100.00
77159;BME280;66129;45.890;13.714;2023-07-13T03:08:16;100746.06;;;20.35;100.00
77159;BME280;66129;45.890;13.714;2023-07-13T03:10:41;100737.31;;;20.37;100.00
77159;BME280;66129;45.890;13.714;2023-07-13T03:13:07;100746.72;;;20.44;100.00
77159;BME280;66129;45.890;13.714;2023-07-13T03:15:32;100751.00;;;20.47;100.00
77159;BME280;66129;45.890;13.714;2023-07-13T03:17:58;100758.69;;;20.53;100.00
77159;BME280;66129;45.890;13.714;2023-07-13T03:20:23;100769.91;;;20.56;100.00
77159;BME280;66129;45.890;13.714;2023-07-13T03:22:49;100760.28;;;20.60;100.00
77159;BME280;66129;45.890;13.714;2023-07-13T03:25:14;100763.66;;;20.65;100.00
77159;BME280;66129;45.890;13.714;2023-07-13T03:27:40;100753.53;;;20.51;100.00
77159;BME280;66129;45.890;13.714;2023-07-13T03:30:06;100763.84;;;20.56;100.00
77159;BME280;66129;45.890;13.714;2023-07-13T03:32:32;100765.44;;;20.63;100.00
77159;BME280;66129;45.890;13.714;2023-07-13T03:34:58;100767.09;;;20.67;100.00
77159;BME280;66129;45.890;13.714;2023-07-13T03:37:23;100759.13;;;20.74;100.00
77159;BME280;66129;45.890;13.714;2023-07-13T03:39:49;100755.69;;;20.71;100.00
77159;BME280;66129;45.890;13.714;2023-07-13T03:42:15;100766.81;;;20.79;100.00
77159;BME280;66129;45.890;13.714;2023-07-13T03:44:41;100763.28;;;20.83;100.00
77159;BME280;66129;45.890;13.714;2023-07-13T03:47:07;100754.63;;;20.82;100.00
77159;BME280;66129;45.890;13.714;2023-07-13T03:49:34;100757.25;;;20.81;100.00
77159;BME280;66129;45.890;13.714;2023-07-13T03:52:00;100759.84;;;20.82;100.00
77159;BME280;66129;45.890;13.714;2023-07-13T03:54:25;100765.97;;;20.78;100.00
77159;BME280;66129;45.890;13.714;2023-07-13T03:56:51;100766.06;;;20.74;100.00
77159;BME280;66129;45.890;13.714;2023-07-13T03:59:16;100756.47;;;20.76;100.00
77159;BME280;66129;45.890;13.714;2023-07-13T04:01:43;100763.38;;;20.78;100.00
77159;BME280;66129;45.890;13.714;2023-07-13T04:04:09;100762.28;;;20.88;100.00
77159;BME280;66129;45.890;13.714;2023-07-13T04:06:35;100761.56;;;20.83;100.00
77159;BME280;66129;45.890;13.714;2023-07-13T04:09:02;100778.69;;;20.93;100.00
77159;BME280;66129;45.890;13.714;2023-07-13T04:11:31;100776.03;;;20.96;100.00
77159;BME280;66129;45.890;13.714;2023-07-13T04:13:57;100783.00;;;20.94;100.00
77159;BME280;66129;45.890;13.714;2023-07-13T04:16:24;100780.34;;;20.97;100.00
77159;BME280;66129;45.890;13.714;2023-07-13T04:18:50;100784.72;;;20.97;100.00
77159;BME280;66129;45.890;13.714;2023-07-13T04:21:20;100796.75;;;21.02;100.00
77159;BME280;66129;45.890;13.714;2023-07-13T04:23:45;100784.56;;;21.03;100.00
77159;BME280;66129;45.890;13.714;2023-07-13T04:26:11;100775.81;;;21.05;100.00
77159;BME280;66129;45.890;13.714;2023-07-13T04:28:36;100778.44;;;21.04;100.00
77159;BME280;66129;45.890;13.714;2023-07-13T04:31:02;100791.34;;;21.11;100.00
77159;BME280;66129;45.890;13.714;2023-07-13T04:33:28;100793.13;;;21.09;100.00
77159;BME280;66129;45.890;13.714;2023-07-13T04:35:55;100807.88;;;21.09;100.00
77159;BME280;66129;45.890;13.714;2023-07-13T04:38:27;100807.69;;;21.18;100.00
77159;BME280;66129;45.890;13.714;2023-07-13T04:40:58;100809.34;;;21.22;100.00
77159;BME280;66129;45.890;13.714;2023-07-13T04:43:25;100803.22;;;21.23;100.00
77159;BME280;66129;45.890;13.714;2023-07-13T04:45:52;100808.31;;;21.29;100.00
77159;BME280;66129;45.890;13.714;2023-07-13T04:48:18;100809.03;;;21.33;100.00
77159;BME280;66129;45.890;13.714;2023-07-13T04:50:45;100812.41;;;21.38;100.00
77159;BME280;66129;45.890;13.714;2023-07-13T04:53:10;100795.97;;;21.35;100.00
77159;BME280;66129;45.890;13.714;2023-07-13T04:55:36;100818.19;;;21.51;100.00
77159;BME280;66129;45.890;13.714;2023-07-13T04:58:02;100818.97;;;21.54;100.00
77159;BME280;66129;45.890;13.714;2023-07-13T05:00:28;100830.09;;;21.62;100.00
77159;BME280;66129;45.890;13.714;2023-07-13T05:02:55;100818.16;;;21.52;100.00
77159;BME280;66129;45.890;13.714;2023-07-13T05:05:21;100818.97;;;21.54;100.00
77159;BME280;66129;45.890;13.714;2023-07-13T05:07:46;100821.66;;;21.51;100.00
77159;BME280;66129;45.890;13.714;2023-07-13T05:10:12;100826.06;;;21.49;100.00
77159;BME280;66129;45.890;13.714;2023-07-13T05:12:37;100816.53;;;21.47;100.00
77159;BME280;66129;45.890;13.714;2023-07-13T05:15:03;100821.53;;;21.56;100.00
77159;BME280;66129;45.890;13.714;2023-07-13T05:17:29;100824.94;;;21.61;100.00
77159;BME280;66129;45.890;13.714;2023-07-13T05:19:54;100833.47;;;21.67;100.00
77159;BME280;66129;45.890;13.714;2023-07-13T05:22:20;100839.56;;;21.68;100.00
77159;BME280;66129;45.890;13.714;2023-07-13T05:24:45;100833.66;;;21.60;100.00
77159;BME280;66129;45.890;13.714;2023-07-13T05:27:10;100846.66;;;21.61;100.00
77159;BME280;66129;45.890;13.714;2023-07-13T05:29:36;100836.22;;;21.61;100.00
77159;BME280;66129;45.890;13.714;2023-07-13T05:32:02;100832.63;;;21.65;100.00
77159;BME280;66129;45.890;13.714;2023-07-13T05:34:28;100838.66;;;21.69;100.00
77159;BME280;66129;45.890;13.714;2023-07-13T05:36:54;100843.69;;;21.76;100.00
77159;BME280;66129;45.890;13.714;2023-07-13T05:39:20;100837.94;;;21.62;100.00
77159;BME280;66129;45.890;13.714;2023-07-13T05:41:45;100834.34;;;21.68;100.00
77159;BME280;66129;45.890;13.714;2023-07-13T05:44:11;100840.06;;;21.82;100.00
77159;BME280;66129;45.890;13.714;2023-07-13T05:46:36;100825.03;;;21.91;100.00
77159;BME280;66129;45.890;13.714;2023-07-13T05:49:02;100839.34;;;22.09;100.00
77159;BME280;66129;45.890;13.714;2023-07-13T05:51:28;100834.66;;;22.21;100.00
77159;BME280;66129;45.890;13.714;2023-07-13T05:53:54;100837.81;;;22.35;98.68
77159;BME280;66129;45.890;13.714;2023-07-13T05:56:19;100837.75;;;22.37;100.00
77159;BME280;66129;45.890;13.714;2023-07-13T05:58:45;100835.88;;;22.43;100.00
77159;BME280;66129;45.890;13.714;2023-07-13T06:01:12;100838.03;;;22.58;98.71
77159;BME280;66129;45.890;13.714;2023-07-13T06:03:38;100843.66;;;22.75;99.03
77159;BME280;66129;45.890;13.714;2023-07-13T06:06:07;100844.09;;;22.89;97.25
77159;BME280;66129;45.890;13.714;2023-07-13T06:08:33;100844.00;;;23.22;96.18
77159;BME280;66129;45.890;13.714;2023-07-13T06:11:19;100859.31;;;23.89;89.68
77159;BME280;66129;45.890;13.714;2023-07-13T06:13:45;100848.72;;;23.92;88.68
77159;BME280;66129;45.890;13.714;2023-07-13T06:16:11;100858.13;;;24.23;89.21
77159;BME280;66129;45.890;13.714;2023-07-13T06:18:37;100850.66;;;24.62;85.59
77159;BME280;66129;45.890;13.714;2023-07-13T06:21:15;100845.72;;;24.77;86.14
77159;BME280;66129;45.890;13.714;2023-07-13T06:23:42;100848.72;;;24.89;85.17
77159;BME280;66129;45.890;13.714;2023-07-13T06:26:08;100851.47;;;25.32;83.69
77159;BME280;66129;45.890;13.714;2023-07-13T06:28:34;100837.66;;;25.92;81.87
77159;BME280;66129;45.890;13.714;2023-07-13T06:31:00;100837.56;;;26.34;78.31
77159;BME280;66129;45.890;13.714;2023-07-13T06:33:26;100845.22;;;26.59;77.89
77159;BME280;66129;45.890;13.714;2023-07-13T06:35:52;100840.00;;;26.77;75.67
77159;BME280;66129;45.890;13.714;2023-07-13T06:38:20;100827.41;;;27.22;72.92
77159;BME280;66129;45.890;13.714;2023-07-13T06:40:45;100831.63;;;27.43;72.83
77159;BME280;66129;45.890;13.714;2023-07-13T06:43:11;100824.38;;;27.83;73.77
77159;BME280;66129;45.890;13.714;2023-07-13T06:45:42;100824.75;;;27.40;73.29
77159;BME280;66129;45.890;13.714;2023-07-13T06:48:07;100817.34;;;26.93;75.86
77159;BME280;66129;45.890;13.714;2023-07-13T06:50:33;100832.09;;;26.59;74.70
77159;BME280;66129;45.890;13.714;2023-07-13T06:52:59;100829.53;;;26.37;75.93
77159;BME280;66129;45.890;13.714;2023-07-13T06:55:25;100836.09;;;26.67;76.08
77159;BME280;66129;45.890;13.714;2023-07-13T06:57:50;100843.66;;;26.75;77.18
77159;BME280;66129;45.890;13.714;2023-07-13T07:00:16;100835.63;;;26.58;77.83
77159;BME280;66129;45.890;13.714;2023-07-13T07:02:41;100839.75;;;26.45;77.84
77159;BME280;66129;45.890;13.714;2023-07-13T07:05:07;100845.03;;;27.02;74.06
77159;BME280;66129;45.890;13.714;2023-07-13T07:07:32;100833.50;;;27.41;74.19
77159;BME280;66129;45.890;13.714;2023-07-13T07:09:58;100847.34;;;28.15;73.06
77159;BME280;66129;45.890;13.714;2023-07-13T07:12:23;100846.75;;;28.27;67.85
77159;BME280;66129;45.890;13.714;2023-07-13T07:14:49;100831.59;;;27.80;70.70
77159;BME280;66129;45.890;13.714;2023-07-13T07:17:14;100828.97;;;28.31;71.32
77159;BME280;66129;45.890;13.714;2023-07-13T07:19:39;100818.00;;;29.34;66.86
77159;BME280;66129;45.890;13.714;2023-07-13T07:22:06;100833.78;;;30.11;64.12
77159;BME280;66129;45.890;13.714;2023-07-13T07:24:32;100819.31;;;29.87;66.51
77159;BME280;66129;45.890;13.714;2023-07-13T07:26:57;100811.16;;;29.76;63.88
77159;BME280;66129;45.890;13.714;2023-07-13T07:29:22;100806.28;;;29.84;60.64
77159;BME280;66129;45.890;13.714;2023-07-13T07:31:50;100813.50;;;29.51;64.37
77159;BME280;66129;45.890;13.714;2023-07-13T07:34:16;100814.50;;;29.93;61.54
77159;BME280;66129;45.890;13.714;2023-07-13T07:36:41;100807.34;;;30.39;59.03
77159;BME280;66129;45.890;13.714;2023-07-13T07:39:06;100819.53;;;30.27;61.13
77159;BME280;66129;45.890;13.714;2023-07-13T07:41:32;100824.44;;;30.19;63.85
77159;BME280;66129;45.890;13.714;2023-07-13T07:43:57;100822.06;;;29.70;61.81
77159;BME280;66129;45.890;13.714;2023-07-13T07:48:56;100782.69;;;29.05;65.03
77159;BME280;66129;45.890;13.714;2023-07-13T07:51:21;100791.38;;;28.75;68.43
77159;BME280;66129;45.890;13.714;2023-07-13T07:53:48;100813.59;;;28.88;67.09
77159;BME280;66129;45.890;13.714;2023-07-13T07:56:13;100789.22;;;28.98;65.57
77159;BME280;66129;45.890;13.714;2023-07-13T07:58:41;100794.34;;;29.17;64.59
77159;BME280;66129;45.890;13.714;2023-07-13T08:01:07;100796.88;;;29.49;64.85
77159;BME280;66129;45.890;13.714;2023-07-13T08:03:33;100797.97;;;29.60;67.58
77159;BME280;66129;45.890;13.714;2023-07-13T08:05:59;100794.41;;;30.34;62.35
77159;BME280;66129;45.890;13.714;2023-07-13T08:08:25;100808.91;;;30.84;58.20
77159;BME280;66129;45.890;13.714;2023-07-13T08:10:51;100810.59;;;31.13;55.17
77159;BME280;66129;45.890;13.714;2023-07-13T08:13:16;100812.38;;;31.27;56.98
77159;BME280;66129;45.890;13.714;2023-07-13T08:15:42;100802.22;;;31.33;55.27
77159;BME280;66129;45.890;13.714;2023-07-13T08:18:07;100797.22;;;31.29;56.29
77159;BME280;66129;45.890;13.714;2023-07-13T08:20:39;100793.47;;;31.45;54.20
77159;BME280;66129;45.890;13.714;2023-07-13T08:23:05;100778.72;;;31.41;53.19
77159;BME280;66129;45.890;13.714;2023-07-13T08:25:31;100779.78;;;31.51;52.89
77159;BME280;66129;45.890;13.714;2023-07-13T08:27:57;100775.91;;;31.30;53.34
77159;BME280;66129;45.890;13.714;2023-07-13T08:30:22;100780.91;;;31.08;53.85
77159;BME280;66129;45.890;13.714;2023-07-13T08:32:48;100790.34;;;30.98;52.79
77159;BME280;66129;45.890;13.714;2023-07-13T08:35:14;100797.34;;;31.13;55.10
77159;BME280;66129;45.890;13.714;2023-07-13T08:37:41;100790.25;;;31.14;53.76
77159;BME280;66129;45.890;13.714;2023-07-13T08:40:09;100795.88;;;30.81;53.68
77159;BME280;66129;45.890;13.714;2023-07-13T08:42:45;100809.47;;;30.75;53.03
77159;BME280;66129;45.890;13.714;2023-07-13T08:45:25;100804.47;;;30.43;53.60
77159;BME280;66129;45.890;13.714;2023-07-13T08:47:58;100802.22;;;30.08;54.51
77159;BME280;66129;45.890;13.714;2023-07-13T08:53:14;100818.25;;;30.05;56.69
77159;BME280;66129;45.890;13.714;2023-07-13T08:55:40;100803.75;;;29.96;56.39
77159;BME280;66129;45.890;13.714;2023-07-13T08:58:11;100820.56;;;29.95;56.43
77159;BME280;66129;45.890;13.714;2023-07-13T09:03:27;100819.75;;;29.50;59.38
77159;BME280;66129;45.890;13.714;2023-07-13T09:05:59;100818.13;;;29.32;62.97
77159;BME280;66129;45.890;13.714;2023-07-13T09:16:09;100821.16;;;29.25;68.21
77159;BME280;66129;45.890;13.714;2023-07-13T09:18:38;100826.56;;;29.54;69.27
77159;BME280;66129;45.890;13.714;2023-07-13T09:21:20;100831.50;;;29.60;66.76
77159;BME280;66129;45.890;13.714;2023-07-13T09:23:47;100846.00;;;29.53;69.50
77159;BME280;66129;45.890;13.714;2023-07-13T09:26:21;100847.66;;;29.23;69.14
77159;BME280;66129;45.890;13.714;2023-07-13T09:28:53;100843.91;;;28.96;68.39
77159;BME280;66129;45.890;13.714;2023-07-13T09:31:24;100845.16;;;28.89;69.83
77159;BME280;66129;45.890;13.714;2023-07-13T09:33:51;100841.84;;;28.86;69.95
77159;BME280;66129;45.890;13.714;2023-07-13T09:36:31;100834.38;;;28.77;68.29
77159;BME280;66129;45.890;13.714;2023-07-13T09:39:18;100842.78;;;28.85;69.67
77159;BME280;66129;45.890;13.714;2023-07-13T09:41:55;100834.13;;;28.81;68.77
77159;BME280;66129;45.890;13.714;2023-07-13T09:44:37;100844.22;;;28.90;69.16
77159;BME280;66129;45.890;13.714;2023-07-13T09:47:12;100847.66;;;28.92;71.37
77159;BME280;66129;45.890;13.714;2023-07-13T09:49:41;100864.97;;;28.81;68.63
77159;BME280;66129;45.890;13.714;2023-07-13T09:52:12;100865.25;;;28.59;68.64
77159;BME280;66129;45.890;13.714;2023-07-13T09:54:43;100888.53;;;28.51;68.21
77159;BME280;66129;45.890;13.714;2023-07-13T09:57:17;100881.25;;;28.39;69.61
77159;BME280;66129;45.890;13.714;2023-07-13T09:59:46;100868.78;;;28.26;69.19
77159;BME280;66129;45.890;13.714;2023-07-13T10:02:27;100865.44;;;28.39;71.11
77159;BME280;66129;45.890;13.714;2023-07-13T10:05:04;100858.97;;;28.45;69.17
77159;BME280;66129;45.890;13.714;2023-07-13T10:07:32;100845.22;;;28.55;70.62
77159;BME280;66129;45.890;13.714;2023-07-13T10:10:02;100830.00;;;28.60;69.75
77159;BME280;66129;45.890;13.714;2023-07-13T10:12:30;100831.34;;;28.84;67.92
77159;BME280;66129;45.890;13.714;2023-07-13T10:15:01;100835.66;;;29.02;67.55
77159;BME280;66129;45.890;13.714;2023-07-13T10:17:30;100844.75;;;29.12;64.93
77159;BME280;66129;45.890;13.714;2023-07-13T10:19:59;100843.06;;;29.11;64.98
77159;BME280;66129;45.890;13.714;2023-07-13T10:22:36;100832.09;;;29.03;65.01
77159;BME280;66129;45.890;13.714;2023-07-13T10:25:19;100810.84;;;29.05;64.65
77159;BME280;66129;45.890;13.714;2023-07-13T10:27:45;100814.94;;;29.10;66.72
77159;BME280;66129;45.890;13.714;2023-07-13T10:30:20;100816.56;;;29.13;65.23
77159;BME280;66129;45.890;13.714;2023-07-13T10:32:49;100812.22;;;29.27;67.44
77159;BME280;66129;45.890;13.714;2023-07-13T10:35:17;100808.06;;;29.54;66.21
77159;BME280;66129;45.890;13.714;2023-07-13T10:38:07;100797.94;;;29.76;63.87
77159;BME280;66129;45.890;13.714;2023-07-13T10:40:54;100798.75;;;29.92;63.06
77159;BME280;66129;45.890;13.714;2023-07-13T10:45:50;100819.66;;;30.26;63.56
77159;BME280;66129;45.890;13.714;2023-07-13T10:48:17;100818.59;;;30.28;62.74
77159;BME280;66129;45.890;13.714;2023-07-13T10:50:45;100823.06;;;30.28;60.55
77159;BME280;66129;45.890;13.714;2023-07-13T10:53:31;100813.97;;;30.32;60.82
77159;BME280;66129;45.890;13.714;2023-07-13T10:58:44;100801.06;;;30.55;62.56
77159;BME280;66129;45.890;13.714;2023-07-13T11:01:13;100808.03;;;30.42;62.15
77159;BME280;66129;45.890;13.714;2023-07-13T11:06:15;100809.56;;;30.03;63.90
77159;BME280;66129;45.890;13.714;2023-07-13T11:19:08;100761.28;;;29.70;66.37
77159;BME280;66129;45.890;13.714;2023-07-13T11:25:01;100722.59;;;30.26;66.09
77159;BME280;66129;45.890;13.714;2023-07-13T11:27:45;100705.31;;;30.21;64.06
77159;BME280;66129;45.890;13.714;2023-07-13T11:38:41;100741.50;;;29.32;67.53
77159;BME280;66129;45.890;13.714;2023-07-13T11:41:17;100746.97;;;29.14;67.11
77159;BME280;66129;45.890;13.714;2023-07-13T11:43:45;100745.28;;;28.97;66.61
77159;BME280;66129;45.890;13.714;2023-07-13T11:46:19;100725.13;;;28.79;67.95
77159;BME280;66129;45.890;13.714;2023-07-13T11:48:46;100739.41;;;28.92;69.50
77159;BME280;66129;45.890;13.714;2023-07-13T11:51:38;100742.03;;;28.92;68.26
77159;BME280;66129;45.890;13.714;2023-07-13T11:54:05;100743.31;;;29.01;68.79
77159;BME280;66129;45.890;13.714;2023-07-13T11:56:32;100748.09;;;28.94;69.09
77159;BME280;66129;45.890;13.714;2023-07-13T11:59:04;100745.72;;;29.05;68.47
77159;BME280;66129;45.890;13.714;2023-07-13T12:01:31;100757.88;;;29.08;67.91
77159;BME280;66129;45.890;13.714;2023-07-13T12:03:58;100762.31;;;29.07;67.45
77159;BME280;66129;45.890;13.714;2023-07-13T12:06:33;100776.47;;;29.22;67.62
77159;BME280;66129;45.890;13.714;2023-07-13T12:09:08;100777.28;;;29.22;67.98
77159;BME280;66129;45.890;13.714;2023-07-13T12:11:41;100781.91;;;29.34;67.91
77159;BME280;66129;45.890;13.714;2023-07-13T12:14:18;100762.56;;;29.18;66.84
77159;BME280;66129;45.890;13.714;2023-07-13T12:16:45;100762.88;;;29.43;66.00
77159;BME280;66129;45.890;13.714;2023-07-13T12:19:27;100746.78;;;29.48;64.92
77159;BME280;66129;45.890;13.714;2023-07-13T12:21:59;100751.38;;;30.03;65.71
77159;BME280;66129;45.890;13.714;2023-07-13T12:24:33;100734.78;;;30.43;63.53
77159;BME280;66129;45.890;13.714;2023-07-13T12:27:04;100721.16;;;30.76;62.60
77159;BME280;66129;45.890;13.714;2023-07-13T12:29:31;100723.38;;;31.10;59.02
77159;BME280;66129;45.890;13.714;2023-07-13T12:31:57;100733.38;;;31.05;61.01
77159;BME280;66129;45.890;13.714;2023-07-13T12:34:25;100735.47;;;31.14;61.34
77159;BME280;66129;45.890;13.714;2023-07-13T12:36:56;100726.97;;;31.09;59.09
77159;BME280;66129;45.890;13.714;2023-07-13T12:41:51;100710.72;;;31.28;60.04
77159;BME280;66129;45.890;13.714;2023-07-13T12:44:27;100717.84;;;31.40;58.44
77159;BME280;66129;45.890;13.714;2023-07-13T12:47:05;100716.06;;;31.40;59.60
77159;BME280;66129;45.890;13.714;2023-07-13T12:49:40;100718.31;;;31.46;57.88
77159;BME280;66129;45.890;13.714;2023-07-13T12:52:13;100728.84;;;31.60;60.28
77159;BME280;66129;45.890;13.714;2023-07-13T12:54:39;100732.47;;;31.72;57.94
77159;BME280;66129;45.890;13.714;2023-07-13T12:57:05;100729.75;;;31.98;57.75
77159;BME280;66129;45.890;13.714;2023-07-13T12:59:34;100732.50;;;31.96;59.62
77159;BME280;66129;45.890;13.714;2023-07-13T13:02:02;100726.97;;;31.99;55.57
77159;BME280;66129;45.890;13.714;2023-07-13T13:04:28;100719.66;;;31.78;57.12
77159;BME280;66129;45.890;13.714;2023-07-13T13:07:01;100710.09;;;31.76;56.70
77159;BME280;66129;45.890;13.714;2023-07-13T13:09:27;100689.81;;;31.62;59.14
77159;BME280;66129;45.890;13.714;2023-07-13T13:11:53;100690.16;;;31.70;61.00
77159;BME280;66129;45.890;13.714;2023-07-13T13:14:18;100677.69;;;31.58;59.45
77159;BME280;66129;45.890;13.714;2023-07-13T13:16:49;100691.97;;;31.82;59.33
77159;BME280;66129;45.890;13.714;2023-07-13T13:21:45;100679.69;;;31.93;58.66
77159;BME280;66129;45.890;13.714;2023-07-13T13:24:17;100694.00;;;32.16;57.53
77159;BME280;66129;45.890;13.714;2023-07-13T13:26:44;100695.69;;;32.04;55.33
77159;BME280;66129;45.890;13.714;2023-07-13T13:29:18;100695.34;;;31.96;54.48